Time;durP1;ratioP1;P1;durP2;ratioP2;P2;SDS_P1;SDS_P2;PMS_P1;PMS_P2;Temp;Humidity;BMP_temperature;BMP_pressure;BME280_temperature;BME280_humidity;BME280_pressure;Samples;Min_cycle;Max_cycle;Signal;HPM_P1;HPM_P2
2023/07/26 00:02:10;;;;;;;18.83;16.07;;;21.40;96.60;;;;;;4933013;29;20473;-84
2023/07/26 00:04:37;;;;;;;12.23;10.40;;;21.40;96.70;;;;;;4930639;29;20476;-84
2023/07/26 00:07:05;;;;;;;9.03;7.60;;;21.30;96.70;;;;;;4934428;29;20475;-84
2023/07/26 00:09:32;;;;;;;9.37;6.77;;;21.30;96.50;;;;;;4933712;29;20563;-84
2023/07/26 00:12:02;;;;;;;14.40;12.90;;;21.30;96.40;;;;;;4932803;29;20493;-83
2023/07/26 00:14:32;;;;;;;30.03;25.80;;;21.30;96.40;;;;;;4930560;29;20492;-82
2023/07/26 00:16:59;;;;;;;32.27;28.40;;;21.30;96.40;;;;;;4933517;29;20469;-82
2023/07/26 00:19:28;;;;;;;38.90;31.87;;;21.30;96.30;;;;;;4935909;29;20580;-84
2023/07/26 00:21:58;;;;;;;29.10;26.00;;;21.30;96.80;;;;;;4938690;29;20543;-83
2023/07/26 00:24:25;;;;;;;26.23;23.50;;;21.30;96.80;;;;;;4909401;29;20532;-85
2023/07/26 00:26:52;;;;;;;31.63;28.23;;;21.30;96.70;;;;;;4918633;29;20472;-83
2023/07/26 00:29:22;;;;;;;35.80;32.00;;;21.30;96.80;;;;;;4935177;29;20477;-84
2023/07/26 00:31:49;;;;;;;45.97;40.73;;;21.20;96.80;;;;;;4933609;29;20472;-84
2023/07/26 00:34:19;;;;;;;39.90;35.23;;;21.20;96.80;;;;;;4936070;29;20495;-83
2023/07/26 00:36:46;;;;;;;34.73;31.10;;;21.20;96.70;;;;;;4934985;29;20986;-81
2023/07/26 00:39:17;;;;;;;22.20;19.80;;;21.20;96.70;;;;;;4935507;29;20476;-84
2023/07/26 00:41:46;;;;;;;18.73;16.70;;;21.10;96.60;;;;;;4933870;29;20469;-83
2023/07/26 00:44:14;;;;;;;17.17;14.03;;;21.10;96.50;;;;;;4932313;29;20482;-85
2023/07/26 00:46:42;;;;;;;23.70;20.33;;;21.10;96.50;;;;;;4934296;29;20473;-85
2023/07/26 00:49:12;;;;;;;40.50;33.37;;;21.10;96.40;;;;;;4935547;29;20468;-82
2023/07/26 00:51:43;;;;;;;25.70;22.03;;;21.10;96.50;;;;;;4931425;29;20468;-84
2023/07/26 00:54:10;;;;;;;49.70;37.13;;;21.10;96.20;;;;;;4934571;29;20517;-82
2023/07/26 00:56:39;;;;;;;31.13;23.73;;;21.00;96.20;;;;;;4938464;29;20480;-83
2023/07/26 00:59:11;;;;;;;48.80;41.63;;;21.10;95.80;;;;;;4936782;29;20461;-85
2023/07/26 01:01:41;;;;;;;53.43;42.30;;;21.00;96.10;;;;;;4936339;29;20480;-84
2023/07/26 01:04:10;;;;;;;53.67;43.80;;;21.00;96.40;;;;;;4935907;29;20473;-82
2023/07/26 01:06:47;;;;;;;55.03;47.93;;;20.90;96.50;;;;;;4935554;29;20703;-82
2023/07/26 01:09:25;;;;;;;50.10;42.00;;;20.90;96.50;;;;;;4935393;29;20473;-83
2023/07/26 01:11:59;;;;;;;43.67;36.20;;;20.90;96.50;;;;;;4934229;29;20919;-84
2023/07/26 01:14:33;;;;;;;31.37;26.10;;;20.80;96.60;;;;;;4936227;29;20882;-83
2023/07/26 01:17:04;;;;;;;36.43;32.60;;;20.80;96.70;;;;;;4935298;29;20471;-85
2023/07/26 01:19:32;;;;;;;8.53;7.37;;;20.70;96.90;;;;;;4935952;29;20588;-85
2023/07/26 01:22:01;;;;;;;3.70;2.70;;;20.80;96.10;;;;;;4935087;29;20468;-83
2023/07/26 01:24:32;;;;;;;2.47;1.87;;;20.70;95.70;;;;;;4933538;29;21005;-83
2023/07/26 01:27:01;;;;;;;1.70;1.60;;;20.50;95.60;;;;;;4934952;29;20483;-86
2023/07/26 01:29:28;;;;;;;5.73;1.87;;;20.30;95.60;;;;;;4931806;29;20608;-83
2023/07/26 01:31:56;;;;;;;8.97;8.07;;;20.10;95.70;;;;;;4935518;29;20508;-83
2023/07/26 01:34:26;;;;;;;4.43;2.63;;;19.90;96.10;;;;;;4934349;29;20464;-85
2023/07/26 01:36:54;;;;;;;4.63;3.10;;;19.80;96.30;;;;;;4935216;29;20971;-83
2023/07/26 01:39:24;;;;;;;3.40;3.00;;;19.60;96.60;;;;;;4954071;29;20531;-85
2023/07/26 01:41:53;;;;;;;5.00;3.10;;;19.40;96.80;;;;;;4954808;29;20551;-83
2023/07/26 01:44:20;;;;;;;4.93;3.30;;;19.30;97.20;;;;;;4954194;28;20494;-85
2023/07/26 01:46:56;;;;;;;4.13;3.37;;;19.10;97.30;;;;;;4953342;28;20538;-83
2023/07/26 01:49:30;;;;;;;4.13;2.20;;;19.00;97.50;;;;;;4952755;28;20540;-82
2023/07/26 01:51:57;;;;;;;2.50;1.70;;;18.90;97.70;;;;;;4942728;28;20570;-82
2023/07/26 01:54:26;;;;;;;4.60;4.20;;;18.80;97.80;;;;;;4943217;28;20480;-83
2023/07/26 01:56:53;;;;;;;4.90;2.83;;;18.80;98.20;;;;;;4959090;28;20966;-83
2023/07/26 01:59:20;;;;;;;3.13;1.73;;;18.60;98.30;;;;;;4953685;28;20472;-84
2023/07/26 02:01:47;;;;;;;4.57;1.90;;;18.60;98.60;;;;;;4953191;28;20475;-86
2023/07/26 02:04:14;;;;;;;5.63;4.20;;;18.40;98.90;;;;;;4954301;28;20486;-84
2023/07/26 02:06:42;;;;;;;38.53;31.63;;;18.40;99.30;;;;;;4953607;28;20554;-83
2023/07/26 02:09:09;;;;;;;9.90;7.17;;;18.30;99.80;;;;;;4953759;28;20500;-83
2023/07/26 02:11:38;;;;;;;14.00;11.60;;;18.30;99.70;;;;;;4953164;29;20472;-85
2023/07/26 02:14:05;;;;;;;16.10;12.00;;;18.30;99.90;;;;;;4951732;29;20497;-84
2023/07/26 02:16:36;;;;;;;2.83;2.40;;;18.30;99.90;;;;;;4952669;29;20468;-84
2023/07/26 02:19:05;;;;;;;4.20;2.47;;;18.20;99.90;;;;;;4953743;29;20562;-84
2023/07/26 02:21:36;;;;;;;3.27;2.00;;;18.10;99.90;;;;;;4953623;28;20468;-83
2023/07/26 02:24:06;;;;;;;4.27;2.53;;;18.10;99.90;;;;;;4953383;29;20475;-84
2023/07/26 02:26:33;;;;;;;8.80;5.67;;;18.00;99.90;;;;;;4931211;29;20504;-83
2023/07/26 02:29:01;;;;;;;6.53;3.60;;;18.00;99.90;;;;;;4947914;29;20531;-83
2023/07/26 02:31:30;;;;;;;8.60;7.60;;;18.00;99.90;;;;;;4953706;28;20965;-85
2023/07/26 02:33:57;;;;;;;29.90;21.87;;;17.90;99.90;;;;;;4933530;28;20583;-83
2023/07/26 02:36:26;;;;;;;31.03;25.23;;;17.90;99.90;;;;;;4955003;28;20479;-83
2023/07/26 02:38:53;;;;;;;21.77;15.17;;;17.90;99.90;;;;;;4955453;28;20471;-85
2023/07/26 02:41:20;;;;;;;4.07;2.93;;;17.90;99.90;;;;;;4955975;28;21133;-83
2023/07/26 02:43:47;;;;;;;41.03;29.70;;;17.80;99.90;;;;;;4955776;28;20468;-83
2023/07/26 02:46:15;;;;;;;13.20;5.23;;;17.70;99.90;;;;;;4956489;28;20459;-85
2023/07/26 02:48:42;;;;;;;4.43;2.43;;;17.70;99.90;;;;;;4957701;29;21026;-83
2023/07/26 02:51:09;;;;;;;6.03;3.10;;;17.70;99.90;;;;;;4957856;28;20471;-83
2023/07/26 02:53:36;;;;;;;3.37;2.30;;;17.70;99.90;;;;;;4957207;28;20476;-82
2023/07/26 02:56:03;;;;;;;4.43;3.17;;;17.70;99.90;;;;;;4960409;28;20471;-83
2023/07/26 02:58:30;;;;;;;7.13;5.70;;;17.60;99.90;;;;;;4959621;28;20471;-85
2023/07/26 03:00:59;;;;;;;3.60;2.97;;;17.60;99.90;;;;;;4958612;28;20468;-85
2023/07/26 03:03:29;;;;;;;7.83;4.43;;;17.60;99.90;;;;;;4957657;28;20500;-85
2023/07/26 03:05:58;;;;;;;8.07;5.00;;;17.50;99.90;;;;;;4957306;28;20460;-85
2023/07/26 03:08:26;;;;;;;4.33;3.90;;;17.50;99.90;;;;;;4957400;29;20543;-85
2023/07/26 03:10:53;;;;;;;6.10;3.47;;;17.50;99.90;;;;;;4956671;28;20472;-85
2023/07/26 03:13:29;;;;;;;5.17;2.83;;;17.40;99.90;;;;;;4956942;28;20532;-85
2023/07/26 03:15:56;;;;;;;7.13;3.17;;;17.40;99.90;;;;;;4957208;29;20471;-82
2023/07/26 03:18:26;;;;;;;5.07;2.80;;;17.40;99.90;;;;;;4959551;29;20475;-83
2023/07/26 03:20:54;;;;;;;5.20;3.63;;;17.30;99.90;;;;;;4968972;28;20487;-83
2023/07/26 03:23:21;;;;;;;5.63;2.77;;;17.30;99.90;;;;;;4959496;28;20475;-85
2023/07/26 03:25:56;;;;;;;3.70;2.10;;;17.30;99.90;;;;;;4946193;28;20985;-84
2023/07/26 03:28:23;;;;;;;6.33;2.20;;;17.30;99.90;;;;;;4955737;29;20530;-83
2023/07/26 03:30:50;;;;;;;5.30;2.60;;;17.30;99.90;;;;;;4954607;28;20480;-83
2023/07/26 03:33:17;;;;;;;5.73;2.17;;;17.20;99.90;;;;;;4956261;29;20493;-83
2023/07/26 03:35:44;;;;;;;4.53;2.97;;;17.20;99.90;;;;;;4955650;28;20471;-85
2023/07/26 03:38:12;;;;;;;2.50;1.87;;;17.10;99.90;;;;;;4956263;29;20478;-83
2023/07/26 03:40:40;;;;;;;3.97;2.17;;;17.10;99.90;;;;;;4955975;29;20544;-84
2023/07/26 03:43:07;;;;;;;4.80;2.50;;;17.10;99.90;;;;;;4955521;28;20464;-84
2023/07/26 03:45:34;;;;;;;4.07;2.77;;;17.10;99.90;;;;;;4955840;28;20981;-82
2023/07/26 03:48:01;;;;;;;3.80;2.50;;;17.00;99.90;;;;;;4955506;28;20484;-85
2023/07/26 03:50:29;;;;;;;3.17;2.17;;;17.00;99.90;;;;;;4956526;28;20532;-83
2023/07/26 03:52:56;;;;;;;2.33;2.03;;;17.00;99.90;;;;;;4956037;28;20511;-84
2023/07/26 03:55:24;;;;;;;4.60;2.80;;;17.00;99.90;;;;;;4956757;28;20965;-83
2023/07/26 03:57:52;;;;;;;3.30;2.03;;;17.00;99.90;;;;;;4956758;29;20468;-84
2023/07/26 04:00:19;;;;;;;4.70;2.40;;;17.00;99.90;;;;;;4956999;28;20472;-85
2023/07/26 04:02:46;;;;;;;4.83;2.00;;;17.00;99.90;;;;;;4955821;28;20476;-83
2023/07/26 04:05:13;;;;;;;2.73;2.50;;;17.00;99.90;;;;;;4955522;28;20471;-85
2023/07/26 04:07:43;;;;;;;4.30;2.10;;;17.00;99.90;;;;;;4955489;29;20487;-83
2023/07/26 04:10:11;;;;;;;4.37;2.20;;;17.00;99.90;;;;;;4954811;29;20536;-86
2023/07/26 04:12:40;;;;;;;2.80;2.00;;;17.00;99.90;;;;;;4954875;28;20978;-83
2023/07/26 04:15:11;;;;;;;3.70;2.00;;;17.00;99.90;;;;;;4945363;28;20486;-85
2023/07/26 04:17:38;;;;;;;10.00;2.50;;;17.00;99.90;;;;;;4954224;29;20476;-83
2023/07/26 04:20:06;;;;;;;4.33;2.80;;;17.00;99.90;;;;;;4954949;28;20476;-82
2023/07/26 04:22:33;;;;;;;5.00;2.50;;;17.00;99.90;;;;;;4955368;28;20560;-86
2023/07/26 04:25:00;;;;;;;3.33;2.50;;;17.00;99.90;;;;;;4955781;28;20471;-86
2023/07/26 04:27:27;;;;;;;3.57;2.80;;;17.00;99.90;;;;;;4948139;29;20548;-84
2023/07/26 04:29:56;;;;;;;3.90;2.30;;;17.00;99.90;;;;;;4960639;29;20472;-85
2023/07/26 04:32:23;;;;;;;3.13;2.23;;;17.00;99.90;;;;;;4959734;28;20468;-83
2023/07/26 04:34:50;;;;;;;4.50;2.90;;;17.10;99.90;;;;;;4959083;28;20504;-85
2023/07/26 04:37:17;;;;;;;5.50;2.33;;;17.10;99.90;;;;;;4961636;29;20464;-85
2023/07/26 04:39:47;;;;;;;3.30;2.57;;;17.10;99.90;;;;;;4959217;28;20471;-86
2023/07/26 04:42:15;;;;;;;4.60;2.20;;;17.10;99.90;;;;;;4959339;29;20486;-86
2023/07/26 04:44:42;;;;;;;3.70;2.33;;;17.20;99.90;;;;;;4958889;28;20471;-86
2023/07/26 04:47:15;;;;;;;6.57;2.70;;;17.20;99.90;;;;;;4964076;28;20467;-85
2023/07/26 04:49:44;;;;;;;2.63;1.80;;;17.30;99.90;;;;;;4959705;28;20538;-82
2023/07/26 04:52:11;;;;;;;4.93;2.30;;;17.30;99.90;;;;;;4959904;28;20476;-82
2023/07/26 04:54:38;;;;;;;4.30;2.23;;;17.40;99.90;;;;;;4940672;29;20551;-84
2023/07/26 04:57:09;;;;;;;3.20;1.90;;;17.40;99.90;;;;;;4960486;28;21037;-85
2023/07/26 04:59:37;;;;;;;4.60;2.73;;;17.40;99.90;;;;;;4960116;29;20482;-86
2023/07/26 05:02:05;;;;;;;3.13;2.40;;;17.50;99.90;;;;;;4959320;29;20487;-83
2023/07/26 05:04:34;;;;;;;2.60;2.10;;;17.50;99.90;;;;;;4957616;28;20475;-84
2023/07/26 05:07:01;;;;;;;3.10;2.53;;;17.60;99.90;;;;;;4958557;28;20472;-82
2023/07/26 05:09:28;;;;;;;3.53;1.90;;;17.60;99.90;;;;;;4957972;28;20471;-84
2023/07/26 05:11:55;;;;;;;5.23;2.47;;;17.60;99.90;;;;;;4957941;28;20467;-84
2023/07/26 05:14:22;;;;;;;5.70;2.43;;;17.70;99.90;;;;;;4958282;28;20479;-84
2023/07/26 05:16:52;;;;;;;6.00;2.70;;;17.70;99.90;;;;;;4949575;28;20479;-81
2023/07/26 05:19:19;;;;;;;3.70;2.13;;;17.60;99.90;;;;;;4958706;28;20538;-86
2023/07/26 05:21:48;;;;;;;6.33;2.23;;;17.70;99.90;;;;;;4958086;28;20434;-83
2023/07/26 05:24:15;;;;;;;2.50;2.07;;;17.70;99.90;;;;;;4958150;28;20512;-84
2023/07/26 05:26:42;;;;;;;3.77;2.50;;;17.80;99.90;;;;;;4957712;28;20475;-86
2023/07/26 05:29:09;;;;;;;3.23;2.07;;;17.80;99.90;;;;;;4959194;29;20961;-85
2023/07/26 05:31:36;;;;;;;3.27;2.30;;;17.80;99.90;;;;;;4957114;28;20535;-84
2023/07/26 05:34:04;;;;;;;2.97;2.20;;;17.80;99.90;;;;;;4958816;28;20545;-85
2023/07/26 05:36:31;;;;;;;3.50;1.97;;;17.80;99.90;;;;;;4957154;28;20499;-83
2023/07/26 05:38:59;;;;;;;2.97;1.90;;;17.80;99.90;;;;;;4958645;28;20531;-83
2023/07/26 05:41:30;;;;;;;4.70;2.60;;;17.90;99.90;;;;;;4958880;28;20539;-86
2023/07/26 05:43:57;;;;;;;7.50;2.10;;;17.90;99.90;;;;;;4957682;28;20842;-83
2023/07/26 05:46:24;;;;;;;2.60;2.40;;;18.00;99.90;;;;;;4958234;28;20472;-85
2023/07/26 05:48:51;;;;;;;8.40;2.50;;;18.00;99.90;;;;;;4958755;28;21038;-83
2023/07/26 05:51:42;;;;;;;4.53;1.93;;;18.00;99.90;;;;;;4957493;28;20459;-83
2023/07/26 05:54:10;;;;;;;4.57;2.70;;;18.00;99.90;;;;;;5048974;23;20483;-83
2023/07/26 05:56:37;;;;;;;4.63;2.70;;;18.00;99.90;;;;;;4976804;28;20475;-83
2023/07/26 05:59:04;;;;;;;2.57;2.27;;;18.00;99.90;;;;;;4976913;28;20514;-82
2023/07/26 06:01:31;;;;;;;4.53;2.73;;;18.10;99.90;;;;;;4977612;28;21021;-83
2023/07/26 06:03:58;;;;;;;4.13;2.30;;;18.10;99.90;;;;;;4976413;28;20475;-84
2023/07/26 06:06:25;;;;;;;10.93;3.33;;;18.10;99.90;;;;;;4976640;28;21048;-83
2023/07/26 06:08:53;;;;;;;12.37;3.50;;;18.20;99.90;;;;;;4976667;28;20498;-84
2023/07/26 06:11:21;;;;;;;15.70;3.00;;;18.20;99.90;;;;;;4976205;28;20483;-85
2023/07/26 06:13:48;;;;;;;4.80;2.67;;;18.30;99.90;;;;;;4976859;28;20513;-83
2023/07/26 06:16:15;;;;;;;16.73;4.40;;;18.30;99.90;;;;;;4975624;28;20534;-84
2023/07/26 06:18:42;;;;;;;50.30;14.07;;;18.40;99.90;;;;;;4976601;28;20945;-86
2023/07/26 06:21:11;;;;;;;88.50;15.90;;;18.40;99.90;;;;;;4975943;28;20498;-86
2023/07/26 06:23:40;;;;;;;13.13;6.07;;;18.40;99.90;;;;;;4976736;28;20523;-83
2023/07/26 06:26:07;;;;;;;39.10;7.97;;;18.50;99.90;;;;;;4976240;28;20471;-83
2023/07/26 06:28:35;;;;;;;10.93;4.50;;;18.50;99.90;;;;;;4977014;28;20478;-84
2023/07/26 06:31:05;;;;;;;15.30;5.53;;;18.60;99.90;;;;;;4976664;28;20475;-84
2023/07/26 06:33:32;;;;;;;34.97;8.03;;;18.70;99.90;;;;;;4977385;28;21033;-84
2023/07/26 06:35:59;;;;;;;16.20;4.73;;;18.70;99.90;;;;;;4977653;28;20477;-82
2023/07/26 06:39:33;;;;;;;5.60;3.10;;;18.90;99.90;;;;;;4969231;28;20482;-85
2023/07/26 06:42:02;;;;;;;6.30;3.87;;;19.00;99.90;;;;;;4929594;28;20462;-85
2023/07/26 06:44:32;;;;;;;51.23;12.93;;;19.20;99.90;;;;;;4975902;28;20546;-82
2023/07/26 06:46:59;;;;;;;17.47;6.40;;;19.30;99.90;;;;;;4976387;28;20534;-83
2023/07/26 06:52:30;;;;;;;4.93;2.80;;;19.70;99.90;;;;;;4975053;28;20607;-83
2023/07/26 06:54:57;;;;;;;4.67;2.50;;;19.90;99.90;;;;;;4966414;28;20552;-83
2023/07/26 06:57:24;;;;;;;3.77;2.57;;;20.00;99.90;;;;;;4956079;28;20475;-84
2023/07/26 07:00:40;;;;;;;6.27;2.70;;;20.10;99.90;;;;;;4956702;28;20546;-83
2023/07/26 07:03:07;;;;;;;2.73;1.80;;;20.30;99.90;;;;;;4956567;28;20993;-83
2023/07/26 07:05:36;;;;;;;2.63;2.37;;;20.50;99.90;;;;;;4956923;28;20480;-85
2023/07/26 07:08:03;;;;;;;9.13;2.60;;;20.70;99.90;;;;;;4956042;28;20495;-86
2023/07/26 07:10:30;;;;;;;2.70;2.00;;;20.90;99.90;;;;;;4956713;28;20886;-86
2023/07/26 07:12:57;;;;;;;4.80;2.83;;;21.00;99.90;;;;;;4956269;28;20479;-84
2023/07/26 07:15:24;;;;;;;4.17;2.20;;;21.10;99.90;;;;;;4956207;28;20486;-83
2023/07/26 07:17:52;;;;;;;3.00;1.70;;;21.20;99.90;;;;;;4945815;28;20794;-85
2023/07/26 07:20:20;;;;;;;5.17;2.43;;;21.20;99.90;;;;;;4956372;28;20969;-85
2023/07/26 07:22:47;;;;;;;5.20;2.70;;;21.20;99.90;;;;;;4955352;28;20962;-86
2023/07/26 07:25:14;;;;;;;3.13;1.90;;;21.20;99.90;;;;;;4955614;28;21112;-86
2023/07/26 07:27:43;;;;;;;2.97;1.90;;;21.30;99.90;;;;;;4946142;28;20514;-86
2023/07/26 07:30:14;;;;;;;4.07;2.30;;;21.30;99.90;;;;;;4954333;28;20825;-84
2023/07/26 07:32:41;;;;;;;4.30;1.97;;;21.30;99.90;;;;;;4955389;28;20472;-83
2023/07/26 07:35:10;;;;;;;5.67;2.40;;;21.40;99.90;;;;;;4955249;28;20544;-84
2023/07/26 07:37:37;;;;;;;4.37;2.20;;;21.30;99.90;;;;;;4956073;28;20480;-86
2023/07/26 07:40:07;;;;;;;2.20;1.70;;;21.30;99.90;;;;;;4935549;28;20471;-85
2023/07/26 07:42:34;;;;;;;4.00;1.87;;;21.40;99.90;;;;;;4956378;28;20502;-84
2023/07/26 07:45:04;;;;;;;3.50;1.60;;;21.30;99.90;;;;;;4955116;28;20562;-84
2023/07/26 07:47:31;;;;;;;2.47;1.80;;;21.40;99.90;;;;;;4956157;28;20539;-85
2023/07/26 07:49:58;;;;;;;5.07;1.73;;;21.40;99.90;;;;;;4955910;28;20527;-85
2023/07/26 07:52:42;;;;;;;2.07;1.50;;;21.40;99.90;;;;;;4956299;28;20471;-85
2023/07/26 07:55:11;;;;;;;2.30;1.67;;;21.50;99.90;;;;;;4945486;28;20487;-85
2023/07/26 07:57:41;;;;;;;1.70;1.60;;;21.60;99.90;;;;;;4955684;28;20989;-83
2023/07/26 08:00:18;;;;;;;4.47;1.50;;;21.60;99.90;;;;;;4955450;28;20507;-84
2023/07/26 08:02:45;;;;;;;2.60;1.77;;;21.60;99.90;;;;;;4956273;28;20468;-85
2023/07/26 08:05:55;;;;;;;6.13;2.47;;;21.70;99.90;;;;;;4959142;28;20475;-83
2023/07/26 08:08:29;;;;;;;3.60;2.33;;;21.70;99.90;;;;;;4954770;28;20516;-83
2023/07/26 08:10:56;;;;;;;3.97;1.97;;;21.70;99.90;;;;;;4956245;28;20943;-85
2023/07/26 08:13:23;;;;;;;2.30;1.97;;;21.70;99.90;;;;;;4963108;28;20500;-85
2023/07/26 08:15:50;;;;;;;1.90;1.70;;;21.90;99.00;;;;;;4956830;28;20552;-83
2023/07/26 08:18:17;;;;;;;2.60;1.77;;;21.90;99.80;;;;;;4957222;28;20475;-86
2023/07/26 08:20:44;;;;;;;6.73;2.47;;;22.00;98.90;;;;;;4956774;28;20475;-86
2023/07/26 08:23:13;;;;;;;3.00;2.00;;;22.10;98.70;;;;;;4957130;28;20471;-86
2023/07/26 08:25:44;;;;;;;1.70;1.60;;;22.10;98.50;;;;;;4959228;28;20543;-85
2023/07/26 08:28:15;;;;;;;2.70;1.50;;;22.20;98.30;;;;;;4963199;28;20527;-86
2023/07/26 08:30:42;;;;;;;3.17;1.73;;;22.20;98.30;;;;;;4949323;28;20547;-86
2023/07/26 08:33:09;;;;;;;11.73;2.80;;;22.20;97.90;;;;;;4956736;28;20685;-86
2023/07/26 08:35:36;;;;;;;5.13;2.00;;;22.20;99.50;;;;;;4958711;28;20483;-85
2023/07/26 08:38:03;;;;;;;1.70;1.60;;;22.30;98.40;;;;;;4958185;28;20822;-83
2023/07/26 08:40:30;;;;;;;4.50;1.63;;;22.30;98.60;;;;;;4957338;28;20483;-86
2023/07/26 08:43:06;;;;;;;2.10;1.57;;;22.40;98.10;;;;;;4955541;28;20480;-83
2023/07/26 08:45:34;;;;;;;10.30;2.80;;;22.40;97.50;;;;;;4955495;28;20494;-83
2023/07/26 08:48:02;;;;;;;3.87;2.40;;;22.40;97.00;;;;;;4954932;28;20456;-84
2023/07/26 08:50:30;;;;;;;9.60;3.47;;;22.30;96.90;;;;;;4955878;28;20471;-85
2023/07/26 08:53:00;;;;;;;13.57;3.63;;;22.20;97.10;;;;;;4954175;28;20483;-82
2023/07/26 08:55:27;;;;;;;8.23;2.97;;;22.20;97.20;;;;;;4955327;28;20997;-82
2023/07/26 08:57:55;;;;;;;3.83;2.50;;;22.20;97.30;;;;;;4955045;29;20857;-85
2023/07/26 09:00:23;;;;;;;9.60;2.43;;;22.10;97.90;;;;;;4955960;29;20478;-83
2023/07/26 09:02:53;;;;;;;3.03;2.40;;;22.10;97.80;;;;;;4946091;28;20587;-85
2023/07/26 09:05:28;;;;;;;13.07;5.77;;;22.10;98.40;;;;;;4954942;28;20543;-83
2023/07/26 09:07:55;;;;;;;40.33;8.30;;;22.10;98.10;;;;;;4955277;29;20471;-86
2023/07/26 09:10:28;;;;;;;12.90;4.23;;;22.10;97.30;;;;;;4955140;28;20471;-84
2023/07/26 09:13:08;;;;;;;3.63;2.00;;;22.20;97.60;;;;;;4958376;28;20471;-84
2023/07/26 09:15:37;;;;;;;3.70;2.10;;;22.30;98.60;;;;;;4958949;29;20512;-86
2023/07/26 09:18:07;;;;;;;3.73;2.33;;;22.40;98.40;;;;;;4958246;29;20455;-84
2023/07/26 09:20:34;;;;;;;3.30;2.00;;;22.40;97.60;;;;;;4960024;28;20499;-83
2023/07/26 09:23:09;;;;;;;2.30;2.10;;;22.50;97.40;;;;;;4950662;29;20471;-86
2023/07/26 09:25:39;;;;;;;2.00;1.50;;;22.50;97.10;;;;;;4959954;29;20475;-82
2023/07/26 09:28:12;;;;;;;3.23;1.80;;;22.60;96.90;;;;;;4957942;28;20543;-83
2023/07/26 09:30:45;;;;;;;1.93;1.70;;;22.60;96.20;;;;;;4955387;28;20978;-87
2023/07/26 09:33:13;;;;;;;3.40;1.97;;;22.60;96.20;;;;;;4960598;29;20539;-86
2023/07/26 09:36:12;;;;;;;2.30;2.10;;;22.60;96.00;;;;;;4948597;28;20511;-83
2023/07/26 09:38:57;;;;;;;4.43;2.03;;;22.60;97.90;;;;;;4959143;29;20783;-87
2023/07/26 09:41:24;;;;;;;2.00;1.60;;;22.60;97.10;;;;;;4958900;29;20471;-84
2023/07/26 09:43:53;;;;;;;2.27;1.80;;;22.60;96.50;;;;;;4947908;29;20494;-83
2023/07/26 09:46:55;;;;;;;2.63;2.00;;;22.70;96.40;;;;;;4960011;28;20479;-86
2023/07/26 09:49:24;;;;;;;2.67;1.97;;;22.60;94.80;;;;;;4959691;29;20508;-86
2023/07/26 09:52:42;;;;;;;2.57;2.10;;;22.60;95.00;;;;;;4958853;29;20459;-84
2023/07/26 09:55:21;;;;;;;2.60;1.97;;;22.60;95.10;;;;;;4957840;28;20495;-83
2023/07/26 09:57:53;;;;;;;2.83;1.90;;;22.60;96.40;;;;;;4957933;28;20544;-86
2023/07/26 10:00:23;;;;;;;2.10;1.80;;;22.60;96.60;;;;;;4957315;28;20846;-83
2023/07/26 10:02:58;;;;;;;3.77;2.33;;;22.60;96.50;;;;;;4957356;28;20531;-83
2023/07/26 10:05:27;;;;;;;4.87;2.27;;;22.60;95.40;;;;;;4957625;28;20483;-86
2023/07/26 10:07:56;;;;;;;2.23;2.00;;;22.70;96.50;;;;;;4958199;28;20467;-85
2023/07/26 10:10:24;;;;;;;2.03;1.57;;;22.70;95.10;;;;;;4947805;28;20838;-84
2023/07/26 10:13:17;;;;;;;2.13;1.87;;;22.70;94.50;;;;;;4942917;28;20898;-83
2023/07/26 10:15:46;;;;;;;6.00;2.50;;;22.70;93.60;;;;;;4956072;28;20559;-84
2023/07/26 10:18:16;;;;;;;4.37;1.63;;;22.70;93.40;;;;;;4957693;28;20931;-83
2023/07/26 10:20:45;;;;;;;1.83;1.73;;;22.70;94.20;;;;;;4956208;28;20958;-82
2023/07/26 10:23:13;;;;;;;9.83;3.03;;;22.70;96.60;;;;;;4957204;28;20464;-84
2023/07/26 10:25:41;;;;;;;4.30;2.50;;;22.80;94.50;;;;;;4956513;28;20989;-84
2023/07/26 10:30:54;;;;;;;2.00;1.90;;;23.00;95.50;;;;;;4939285;29;20464;-83
2023/07/26 10:33:22;;;;;;;2.07;1.87;;;23.00;94.00;;;;;;4935310;29;20475;-83
2023/07/26 10:38:50;;;;;;;1.77;1.50;;;23.20;95.40;;;;;;4929877;29;20482;-84
2023/07/26 10:41:26;;;;;;;3.77;1.67;;;23.30;94.20;;;;;;4935693;29;20473;-83
2023/07/26 10:44:06;;;;;;;2.37;1.50;;;23.30;93.60;;;;;;4935579;29;20505;-86
2023/07/26 10:46:50;;;;;;;2.67;1.80;;;23.40;93.60;;;;;;4934757;29;20563;-86
2023/07/26 10:49:24;;;;;;;1.83;1.50;;;23.40;94.30;;;;;;4935723;29;20957;-86
2023/07/26 10:51:58;;;;;;;2.00;1.60;;;23.50;94.30;;;;;;4936363;29;20472;-85
2023/07/26 10:54:43;;;;;;;3.80;1.60;;;23.50;93.30;;;;;;4935066;29;20548;-85
2023/07/26 11:00:22;;;;;;;2.63;2.13;;;23.40;92.00;;;;;;4953825;28;20948;-85
2023/07/26 11:03:28;;;;;;;2.53;1.80;;;23.50;91.80;;;;;;4978727;28;20454;-84
2023/07/26 11:06:10;;;;;;;2.00;1.33;;;23.50;92.10;;;;;;4889784;28;20487;-85
2023/07/26 11:08:44;;;;;;;2.77;1.33;;;23.50;93.30;;;;;;4975847;28;20491;-85
2023/07/26 11:11:11;;;;;;;2.57;1.90;;;23.50;94.30;;;;;;4965277;28;20475;-82
2023/07/26 11:13:37;;;;;;;2.90;1.97;;;23.50;93.70;;;;;;4974672;28;20484;-84
2023/07/26 11:16:05;;;;;;;1.70;1.60;;;23.50;95.20;;;;;;4974911;28;20475;-85
2023/07/26 11:18:42;;;;;;;4.43;2.00;;;23.50;94.70;;;;;;4975169;28;20558;-85
2023/07/26 11:21:15;;;;;;;4.30;2.10;;;23.60;94.00;;;;;;4974966;28;20550;-85
2023/07/26 11:23:42;;;;;;;3.90;1.70;;;23.60;93.20;;;;;;4975499;28;20481;-82
2023/07/26 11:26:13;;;;;;;6.30;1.90;;;23.60;92.40;;;;;;4975381;28;20471;-85
2023/07/26 11:28:46;;;;;;;3.20;1.57;;;23.60;92.30;;;;;;4977581;28;20475;-85
2023/07/26 11:31:22;;;;;;;3.17;1.57;;;23.60;92.20;;;;;;4965551;28;21009;-86
2023/07/26 11:33:49;;;;;;;2.23;1.60;;;23.50;92.10;;;;;;4974406;28;20463;-86
2023/07/26 11:36:22;;;;;;;2.90;1.90;;;23.40;92.20;;;;;;4964320;28;20477;-86
2023/07/26 11:38:49;;;;;;;2.00;1.67;;;23.30;92.60;;;;;;4975187;28;20458;-85
2023/07/26 11:41:19;;;;;;;3.67;2.80;;;23.30;92.30;;;;;;4975140;28;20508;-85
2023/07/26 11:43:48;;;;;;;2.40;2.00;;;23.10;91.60;;;;;;4975232;28;20471;-87
2023/07/26 11:46:15;;;;;;;2.43;1.70;;;23.00;91.90;;;;;;4975535;28;20471;-86
2023/07/26 11:48:45;;;;;;;6.10;3.10;;;23.00;94.10;;;;;;4974451;28;20549;-83
2023/07/26 11:51:12;;;;;;;4.03;2.37;;;22.90;94.30;;;;;;4975529;28;20470;-85
2023/07/26 11:53:42;;;;;;;3.20;2.13;;;22.90;94.70;;;;;;4974863;28;20617;-86
2023/07/26 11:56:16;;;;;;;3.90;1.90;;;22.90;94.90;;;;;;4957037;28;20472;-83
2023/07/26 11:58:43;;;;;;;1.97;1.50;;;22.80;94.50;;;;;;4947121;28;20535;-82
2023/07/26 12:01:10;;;;;;;2.60;1.97;;;22.80;94.80;;;;;;4955441;28;20535;-83
2023/07/26 12:03:38;;;;;;;2.40;2.20;;;22.70;95.30;;;;;;4955032;28;20479;-85
2023/07/26 12:06:06;;;;;;;3.30;1.90;;;22.70;94.60;;;;;;4956477;28;20472;-83
2023/07/26 12:09:20;;;;;;;2.57;2.27;;;22.40;93.50;;;;;;4947469;28;20480;-85
2023/07/26 12:13:10;;;;;;;9.07;3.03;;;22.40;94.50;;;;;;4961839;28;20478;-86
2023/07/26 12:15:55;;;;;;;8.60;3.97;;;22.30;93.90;;;;;;4988331;23;20474;-86
2023/07/26 12:18:26;;;;;;;3.97;2.47;;;22.30;94.10;;;;;;4994592;28;20509;-87
2023/07/26 12:20:58;;;;;;;5.80;2.43;;;22.30;94.30;;;;;;4984154;28;20508;-85
2023/07/26 12:23:50;;;;;;;4.17;2.47;;;22.30;94.70;;;;;;4968323;28;20474;-85
2023/07/26 12:26:23;;;;;;;3.87;2.33;;;22.40;95.00;;;;;;4975574;28;20475;-87
2023/07/26 12:35:21;;;;;;;4.27;2.33;;;22.80;95.10;;;;;;4805203;29;20477;-86
2023/07/26 12:38:39;;;;;;;2.70;2.13;;;22.90;96.30;;;;;;4810795;29;20577;-86
2023/07/26 12:41:07;;;;;;;4.73;1.83;;;23.10;96.20;;;;;;4831873;29;20618;-84
2023/07/26 12:43:46;;;;;;;2.70;1.60;;;23.20;95.30;;;;;;4971253;28;20451;-85
2023/07/26 12:46:15;;;;;;;3.23;1.87;;;23.30;94.30;;;;;;4962148;28;20476;-83
2023/07/26 12:52:54;;;;;;;13.60;2.33;;;23.40;94.30;;;;;;4899777;29;21002;-83
2023/07/26 12:55:23;;;;;;;3.30;2.00;;;23.50;92.90;;;;;;4890214;29;20485;-83
2023/07/26 12:57:50;;;;;;;6.87;2.30;;;23.50;93.10;;;;;;4969092;28;20561;-83
2023/07/26 13:00:25;;;;;;;2.60;1.93;;;23.60;92.80;;;;;;4977564;28;20475;-82
2023/07/26 13:06:17;;;;;;;3.47;2.37;;;23.60;92.00;;;;;;4900906;28;20490;-82
2023/07/26 13:16:53;;;;;;;2.70;2.17;;;23.50;92.80;;;;;;4806328;29;20485;-84
2023/07/26 13:19:20;;;;;;;2.30;1.90;;;23.40;93.80;;;;;;4880198;29;20467;-83
2023/07/26 13:21:55;;;;;;;12.50;3.73;;;23.30;95.20;;;;;;4902278;28;20462;-82
2023/07/26 13:24:42;;;;;;;5.40;2.53;;;23.10;97.10;;;;;;4963055;28;20501;-83
2023/07/26 13:27:09;;;;;;;5.50;2.97;;;22.90;97.90;;;;;;4971130;28;20584;-82
2023/07/26 13:29:36;;;;;;;5.13;2.67;;;22.70;98.90;;;;;;4976849;28;20486;-83
2023/07/26 13:32:03;;;;;;;2.40;1.67;;;22.30;99.60;;;;;;4974505;28;20474;-81
2023/07/26 13:34:32;;;;;;;2.47;1.87;;;22.10;99.90;;;;;;4975520;28;20493;-81
2023/07/26 13:37:15;;;;;;;1.87;1.63;;;21.90;99.90;;;;;;4976494;28;20529;-81